Time;durP1;ratioP1;P1;durP2;ratioP2;P2;SDS_P1;SDS_P2;PMS_P1;PMS_P2;Temp;Humidity;BMP_temperature;BMP_pressure;BME280_temperature;BME280_humidity;BME280_pressure;Samples;Min_cycle;Max_cycle;Signal;HPM_P1;HPM_P2
2021/01/11 00:01:10;;;;;;;42.43;25.27;;;4.20;99.90;;;;;;5007188;28;20507;-49
2021/01/11 00:03:37;;;;;;;42.77;25.17;;;4.20;99.90;;;;;;5006928;28;20479;-50
2021/01/11 00:06:05;;;;;;;46.60;27.37;;;4.20;99.90;;;;;;5009586;28;20518;-49
2021/01/11 00:08:33;;;;;;;46.70;29.70;;;4.30;99.90;;;;;;5010248;28;20487;-49
2021/01/11 00:11:00;;;;;;;50.50;30.97;;;4.20;99.90;;;;;;5008324;28;20522;-49
2021/01/11 00:13:27;;;;;;;47.47;27.37;;;4.20;99.90;;;;;;5010685;28;20546;-49
2021/01/11 00:15:55;;;;;;;46.40;26.63;;;4.20;99.90;;;;;;5014763;28;20514;-50
2021/01/11 00:18:22;;;;;;;43.13;26.93;;;4.10;99.90;;;;;;5020683;28;20719;-49
2021/01/11 00:20:49;;;;;;;43.37;26.57;;;4.10;99.90;;;;;;5024497;28;20494;-49
2021/01/11 00:23:19;;;;;;;43.50;26.70;;;4.10;99.90;;;;;;5020593;28;20501;-50
2021/01/11 00:25:47;;;;;;;43.23;25.80;;;4.10;99.90;;;;;;5006595;28;20486;-50
2021/01/11 00:28:14;;;;;;;45.37;27.97;;;4.10;99.90;;;;;;5003521;28;21270;-49
2021/01/11 00:30:41;;;;;;;37.50;24.30;;;4.10;99.90;;;;;;5004745;28;20882;-49
2021/01/11 00:33:09;;;;;;;44.37;27.63;;;4.10;99.90;;;;;;5004201;28;20487;-50
2021/01/11 00:35:36;;;;;;;45.43;28.50;;;4.10;99.90;;;;;;5005025;28;20498;-49
2021/01/11 00:38:03;;;;;;;43.30;27.47;;;4.20;99.90;;;;;;5005592;28;20494;-49
2021/01/11 00:40:32;;;;;;;47.43;28.43;;;4.10;99.90;;;;;;5006971;28;20474;-49
2021/01/11 00:42:59;;;;;;;42.93;27.17;;;4.10;99.90;;;;;;5008150;28;21025;-50
2021/01/11 00:45:26;;;;;;;40.60;26.57;;;4.10;99.90;;;;;;5008258;28;21046;-49
2021/01/11 00:47:54;;;;;;;43.50;28.33;;;4.20;99.90;;;;;;5007923;28;20530;-50
2021/01/11 00:50:21;;;;;;;45.83;27.27;;;4.10;99.90;;;;;;5006992;28;20488;-49
2021/01/11 00:52:49;;;;;;;43.97;28.57;;;4.10;99.90;;;;;;5006256;28;20486;-49
2021/01/11 00:55:23;;;;;;;46.40;28.60;;;4.00;99.90;;;;;;5008305;28;20480;-49
2021/01/11 00:57:59;;;;;;;44.90;28.03;;;4.10;99.90;;;;;;5008363;28;20543;-51
2021/01/11 01:00:30;;;;;;;46.47;29.70;;;4.10;99.90;;;;;;5005869;28;20480;-49
2021/01/11 01:03:12;;;;;;;43.30;26.57;;;4.10;99.90;;;;;;5006025;28;20629;-49
2021/01/11 01:05:40;;;;;;;41.90;26.80;;;4.10;99.90;;;;;;5008081;28;20972;-49
2021/01/11 01:08:07;;;;;;;41.30;25.70;;;4.10;99.90;;;;;;5007280;28;20544;-49
2021/01/11 01:10:34;;;;;;;40.10;26.87;;;4.10;99.90;;;;;;5020556;28;20478;-50
2021/01/11 01:13:03;;;;;;;42.03;26.20;;;4.10;99.90;;;;;;5008228;28;20491;-49
2021/01/11 01:15:30;;;;;;;39.97;24.77;;;4.00;99.90;;;;;;5015121;28;20481;-50
2021/01/11 01:17:57;;;;;;;42.47;26.37;;;4.20;99.90;;;;;;5019273;28;20473;-49
2021/01/11 01:20:25;;;;;;;42.70;26.10;;;4.10;99.90;;;;;;5027362;28;20484;-49
2021/01/11 01:22:52;;;;;;;41.67;25.70;;;4.10;99.90;;;;;;4993914;28;20531;-49
2021/01/11 01:25:20;;;;;;;41.77;25.33;;;4.20;99.90;;;;;;4986917;28;20483;-49
2021/01/11 01:27:47;;;;;;;38.87;24.43;;;4.20;99.90;;;;;;4984582;28;20529;-50
2021/01/11 01:30:16;;;;;;;40.73;25.13;;;4.20;99.90;;;;;;4980300;28;20559;-50
2021/01/11 01:32:44;;;;;;;40.63;24.83;;;4.10;99.90;;;;;;4987769;28;20489;-49
2021/01/11 01:35:12;;;;;;;40.53;24.80;;;4.10;99.90;;;;;;4988321;28;20476;-51
2021/01/11 01:37:40;;;;;;;45.83;27.67;;;4.10;99.90;;;;;;4990499;28;20473;-49
2021/01/11 01:40:08;;;;;;;45.13;26.63;;;4.10;99.90;;;;;;4987955;28;20577;-49
2021/01/11 01:42:36;;;;;;;41.83;24.33;;;4.20;99.90;;;;;;4987712;28;20501;-49
2021/01/11 01:45:06;;;;;;;47.20;26.83;;;4.10;99.90;;;;;;4988412;28;20899;-50
2021/01/11 01:47:35;;;;;;;42.97;25.53;;;4.10;99.90;;;;;;4988109;28;20472;-49
2021/01/11 01:50:07;;;;;;;42.77;25.47;;;4.10;99.90;;;;;;4990347;28;20540;-49
2021/01/11 01:52:35;;;;;;;45.63;26.83;;;4.10;99.90;;;;;;4986941;28;20488;-49
2021/01/11 01:55:04;;;;;;;46.90;25.43;;;4.20;99.90;;;;;;4987775;28;20541;-50
2021/01/11 01:57:33;;;;;;;46.23;27.00;;;4.20;99.90;;;;;;4988392;28;20501;-49
2021/01/11 02:00:01;;;;;;;50.47;27.63;;;4.10;99.90;;;;;;4988278;28;20910;-49
2021/01/11 02:02:28;;;;;;;49.60;27.33;;;4.20;99.90;;;;;;4989766;28;20483;-49
2021/01/11 02:04:57;;;;;;;49.90;27.30;;;4.20;99.90;;;;;;4987164;28;20650;-49
2021/01/11 02:07:33;;;;;;;55.50;28.30;;;4.20;99.90;;;;;;4998491;28;20479;-50
2021/01/11 02:10:17;;;;;;;49.37;28.70;;;4.20;99.90;;;;;;4995711;28;20491;-49
2021/01/11 02:13:13;;;;;;;51.30;27.20;;;4.20;99.90;;;;;;4996029;28;20509;-50
2021/01/11 02:15:53;;;;;;;48.60;28.10;;;4.10;99.90;;;;;;5002273;28;20538;-49
2021/01/11 02:18:30;;;;;;;48.60;25.50;;;4.20;99.90;;;;;;5011104;28;20949;-49
2021/01/11 02:21:41;;;;;;;61.00;29.20;;;4.20;99.90;;;;;;4994521;28;20530;-50
2021/01/11 02:25:13;;;;;;;58.63;30.43;;;4.20;99.90;;;;;;5020745;28;20494;-49
2021/01/11 02:27:47;;;;;;;59.43;28.90;;;4.10;99.90;;;;;;4944945;28;20508;-49
2021/01/11 02:30:28;;;;;;;59.50;30.37;;;4.20;99.90;;;;;;5010766;28;20505;-50
2021/01/11 02:33:01;;;;;;;62.80;31.27;;;4.30;99.90;;;;;;5010282;28;20527;-50
2021/01/11 02:35:30;;;;;;;65.13;30.77;;;4.30;99.90;;;;;;5011017;28;20478;-50
2021/01/11 02:37:59;;;;;;;62.23;31.07;;;4.20;99.90;;;;;;5010471;28;20565;-49
2021/01/11 02:40:27;;;;;;;74.47;34.30;;;4.30;99.90;;;;;;5009046;28;21051;-49
2021/01/11 02:42:54;;;;;;;68.40;32.30;;;4.20;99.90;;;;;;5008101;28;20495;-49
2021/01/11 02:45:22;;;;;;;74.63;34.87;;;4.20;99.90;;;;;;5009138;28;20492;-49
2021/01/11 02:48:06;;;;;;;76.93;34.07;;;4.20;99.90;;;;;;5008644;28;20510;-49
2021/01/11 02:50:45;;;;;;;80.93;35.67;;;4.20;99.90;;;;;;5009393;28;20483;-49
2021/01/11 02:53:32;;;;;;;74.90;35.33;;;4.20;99.90;;;;;;5009144;28;20476;-49
2021/01/11 02:56:04;;;;;;;80.33;37.47;;;4.10;99.90;;;;;;5010094;28;20479;-49
2021/01/11 02:58:47;;;;;;;77.37;36.27;;;4.10;99.90;;;;;;5010219;28;20467;-49
2021/01/11 03:01:18;;;;;;;77.50;35.13;;;4.30;99.90;;;;;;5009514;28;20547;-50
2021/01/11 03:03:48;;;;;;;76.40;35.60;;;4.20;99.90;;;;;;4990271;28;20487;-49
2021/01/11 03:06:16;;;;;;;78.73;35.90;;;4.20;99.90;;;;;;4995747;28;20484;-49
2021/01/11 03:08:44;;;;;;;80.53;37.33;;;4.20;99.90;;;;;;5012868;28;20985;-50
2021/01/11 03:11:11;;;;;;;78.40;36.70;;;4.30;99.90;;;;;;5024345;28;20563;-49
2021/01/11 03:13:38;;;;;;;86.37;39.43;;;4.30;99.90;;;;;;5014476;28;21038;-49
2021/01/11 03:16:06;;;;;;;83.83;37.30;;;4.30;99.90;;;;;;5009954;28;20488;-49
2021/01/11 03:18:34;;;;;;;84.53;39.50;;;4.20;99.90;;;;;;5009102;28;21665;-49
2021/01/11 03:21:01;;;;;;;82.77;39.73;;;4.20;99.90;;;;;;5006638;28;20478;-50
2021/01/11 03:23:29;;;;;;;83.30;37.70;;;4.20;99.90;;;;;;5009038;28;20967;-49
2021/01/11 03:25:56;;;;;;;79.17;38.07;;;4.20;99.90;;;;;;5009772;28;20482;-49
2021/01/11 03:28:23;;;;;;;82.47;39.00;;;4.10;99.90;;;;;;5009279;28;20466;-51
2021/01/11 03:30:51;;;;;;;80.93;38.97;;;4.10;99.90;;;;;;5009492;28;20547;-49
2021/01/11 03:33:18;;;;;;;85.40;38.83;;;4.10;99.90;;;;;;5009664;28;20589;-49
2021/01/11 03:35:46;;;;;;;82.07;38.90;;;4.20;99.90;;;;;;5012152;28;21033;-49
2021/01/11 03:38:14;;;;;;;87.13;40.03;;;4.10;99.90;;;;;;4990074;28;20486;-50
2021/01/11 03:40:41;;;;;;;84.07;38.30;;;4.20;99.90;;;;;;4997143;28;20535;-49
2021/01/11 03:43:08;;;;;;;86.70;40.27;;;4.20;99.90;;;;;;5011475;28;20510;-50
2021/01/11 03:45:35;;;;;;;87.80;40.10;;;4.20;99.90;;;;;;5009460;28;20509;-49
2021/01/11 03:48:04;;;;;;;81.90;39.13;;;4.10;99.90;;;;;;5009159;28;20479;-51
2021/01/11 03:50:31;;;;;;;92.97;40.93;;;4.20;99.90;;;;;;5009346;28;20531;-49
2021/01/11 03:53:00;;;;;;;93.90;43.57;;;4.10;99.90;;;;;;5009271;28;20516;-50
2021/01/11 03:55:27;;;;;;;95.80;41.50;;;4.20;99.90;;;;;;5008828;28;20527;-49
2021/01/11 03:57:54;;;;;;;94.20;40.27;;;4.20;99.90;;;;;;5011759;28;20531;-49
2021/01/11 04:00:22;;;;;;;92.40;41.30;;;4.10;99.90;;;;;;5008008;28;21217;-49
2021/01/11 04:02:49;;;;;;;93.97;43.30;;;4.10;99.90;;;;;;5015050;28;20480;-49
2021/01/11 04:05:16;;;;;;;97.80;43.43;;;4.10;99.90;;;;;;5023077;28;20494;-49
2021/01/11 04:07:44;;;;;;;95.83;43.23;;;4.10;99.90;;;;;;5013138;28;20475;-49
2021/01/11 04:10:13;;;;;;;98.67;43.73;;;4.10;99.90;;;;;;5016681;28;20500;-49
2021/01/11 04:12:40;;;;;;;104.00;45.83;;;4.00;99.90;;;;;;5008820;28;20491;-49
2021/01/11 04:15:09;;;;;;;104.90;44.77;;;4.10;99.90;;;;;;5007654;28;20503;-49
2021/01/11 04:17:37;;;;;;;101.73;44.10;;;4.10;99.90;;;;;;5008431;28;20574;-49
2021/01/11 04:20:06;;;;;;;105.20;44.80;;;4.10;99.90;;;;;;5006754;28;20472;-49
2021/01/11 04:22:34;;;;;;;98.70;43.23;;;4.10;99.90;;;;;;5007849;28;20565;-49
2021/01/11 04:25:01;;;;;;;104.03;43.97;;;4.10;99.90;;;;;;5009033;28;20497;-49
2021/01/11 04:27:30;;;;;;;104.87;44.93;;;4.10;99.90;;;;;;5008610;28;20518;-50
2021/01/11 04:29:57;;;;;;;103.10;43.83;;;4.10;99.90;;;;;;5008625;28;20483;-49
2021/01/11 04:32:25;;;;;;;104.77;46.27;;;4.10;99.90;;;;;;5007973;28;20487;-49
2021/01/11 04:34:52;;;;;;;101.90;44.47;;;4.10;99.90;;;;;;5007592;28;20526;-49
2021/01/11 04:37:19;;;;;;;98.00;43.63;;;4.10;99.90;;;;;;5008313;28;20541;-49
2021/01/11 04:39:46;;;;;;;97.40;42.83;;;4.00;99.90;;;;;;5008513;28;20492;-49
2021/01/11 04:42:21;;;;;;;93.50;40.20;;;4.10;99.90;;;;;;5007536;28;20860;-49
2021/01/11 04:44:49;;;;;;;92.60;41.20;;;4.10;99.90;;;;;;5008522;28;20491;-49
2021/01/11 04:47:17;;;;;;;96.50;42.10;;;4.10;99.90;;;;;;5008089;28;20527;-49
2021/01/11 04:49:44;;;;;;;95.13;39.97;;;4.10;99.90;;;;;;5008221;28;20496;-49
2021/01/11 04:52:18;;;;;;;90.87;37.90;;;4.10;99.90;;;;;;5007880;28;20474;-49
2021/01/11 04:54:49;;;;;;;95.40;42.47;;;4.20;99.90;;;;;;5008157;28;20609;-49
2021/01/11 04:57:21;;;;;;;97.07;43.17;;;4.20;99.90;;;;;;5008346;28;20999;-49
2021/01/11 04:59:50;;;;;;;105.07;45.00;;;4.10;99.90;;;;;;5008235;28;20578;-49
2021/01/11 05:02:21;;;;;;;104.87;45.23;;;4.10;99.90;;;;;;5010914;28;20479;-49
2021/01/11 05:04:49;;;;;;;104.20;44.20;;;4.10;99.90;;;;;;5013313;28;20497;-49
2021/01/11 05:07:22;;;;;;;93.50;39.77;;;4.10;99.90;;;;;;5019228;28;20478;-49
2021/01/11 05:09:50;;;;;;;100.70;45.23;;;4.10;99.90;;;;;;5027456;28;20874;-49
2021/01/11 05:12:17;;;;;;;103.37;41.93;;;4.10;99.90;;;;;;5008077;28;20472;-49
2021/01/11 05:14:45;;;;;;;108.83;45.70;;;4.10;99.90;;;;;;5006824;28;20542;-49
2021/01/11 05:17:17;;;;;;;109.77;46.73;;;4.10;99.90;;;;;;5006982;28;20483;-50
2021/01/11 05:19:44;;;;;;;105.00;47.07;;;4.10;99.90;;;;;;5007966;28;20525;-50
2021/01/11 05:22:11;;;;;;;92.20;45.57;;;4.10;99.90;;;;;;5007117;28;20549;-49
2021/01/11 05:24:42;;;;;;;100.87;44.93;;;4.10;99.90;;;;;;5008012;28;20843;-49
2021/01/11 05:27:11;;;;;;;90.33;42.63;;;4.10;99.90;;;;;;5007335;28;20537;-49
2021/01/11 05:29:43;;;;;;;89.33;42.70;;;4.10;99.90;;;;;;5010121;28;20553;-50
2021/01/11 05:32:10;;;;;;;94.67;43.57;;;4.20;99.90;;;;;;5007235;28;20877;-49
2021/01/11 05:34:50;;;;;;;93.43;43.93;;;4.10;99.90;;;;;;5007795;28;20563;-49
2021/01/11 05:37:38;;;;;;;87.03;39.83;;;4.10;99.90;;;;;;5007746;28;20485;-49
2021/01/11 05:40:11;;;;;;;87.33;40.70;;;4.00;99.90;;;;;;4988010;28;20531;-49
2021/01/11 05:42:39;;;;;;;84.47;41.77;;;4.10;99.90;;;;;;4992906;28;21029;-49
2021/01/11 05:45:12;;;;;;;84.43;39.67;;;4.10;99.90;;;;;;5007590;28;21038;-49
2021/01/11 05:48:01;;;;;;;77.40;39.00;;;4.00;99.90;;;;;;5009785;28;20513;-49
2021/01/11 05:50:32;;;;;;;71.43;38.37;;;4.10;99.90;;;;;;5011340;28;20875;-49
2021/01/11 05:53:00;;;;;;;70.10;34.33;;;4.00;99.90;;;;;;5010711;28;20476;-50
2021/01/11 05:55:29;;;;;;;65.80;34.87;;;4.10;99.90;;;;;;5009763;28;20479;-49
2021/01/11 05:58:02;;;;;;;71.13;37.13;;;4.00;99.90;;;;;;5017026;28;20548;-49
2021/01/11 06:00:32;;;;;;;68.43;37.00;;;4.00;99.90;;;;;;5016295;28;20966;-49
2021/01/11 06:03:01;;;;;;;66.03;36.23;;;4.00;99.90;;;;;;5013623;28;20954;-49
2021/01/11 06:05:31;;;;;;;63.63;33.30;;;3.90;99.90;;;;;;5022851;28;20832;-49
2021/01/11 06:08:00;;;;;;;64.43;33.03;;;4.00;99.90;;;;;;5016910;28;20499;-49
2021/01/11 06:10:28;;;;;;;61.47;32.07;;;3.90;99.90;;;;;;5001088;28;20502;-49
2021/01/11 06:12:55;;;;;;;56.10;31.60;;;3.90;99.90;;;;;;5005793;28;20529;-49
2021/01/11 06:15:24;;;;;;;55.67;30.73;;;3.90;99.90;;;;;;5004628;28;20509;-49
2021/01/11 06:17:53;;;;;;;55.80;30.40;;;3.90;99.90;;;;;;5008528;28;21144;-49
2021/01/11 06:20:23;;;;;;;50.77;28.17;;;3.90;99.90;;;;;;5010755;28;20551;-49
2021/01/11 06:23:27;;;;;;;46.10;27.00;;;3.90;99.90;;;;;;5010413;28;20493;-49
2021/01/11 06:25:56;;;;;;;48.00;25.30;;;3.90;99.90;;;;;;5011032;28;20494;-49
2021/01/11 06:28:35;;;;;;;42.97;25.37;;;3.90;99.90;;;;;;5010774;28;20868;-49
2021/01/11 06:31:11;;;;;;;43.80;24.00;;;3.90;99.90;;;;;;5011005;28;20477;-49
2021/01/11 06:33:40;;;;;;;41.97;24.33;;;3.90;99.90;;;;;;5006091;28;20493;-49
2021/01/11 06:36:24;;;;;;;37.83;23.53;;;3.90;99.90;;;;;;5009083;28;20636;-49
2021/01/11 06:38:53;;;;;;;38.37;23.50;;;3.90;99.90;;;;;;5010238;28;20483;-49
2021/01/11 06:41:23;;;;;;;35.70;22.83;;;3.90;99.90;;;;;;5010247;28;20526;-50
2021/01/11 06:43:52;;;;;;;37.83;24.17;;;3.90;99.90;;;;;;5010340;28;20499;-49
2021/01/11 06:46:46;;;;;;;40.17;24.57;;;3.90;99.90;;;;;;5009551;28;20474;-49
2021/01/11 06:49:28;;;;;;;41.77;24.83;;;3.80;99.90;;;;;;5009285;28;20529;-50
2021/01/11 06:52:08;;;;;;;40.77;24.73;;;3.90;99.90;;;;;;5010191;28;20478;-51
2021/01/11 06:54:43;;;;;;;44.30;25.77;;;3.90;99.90;;;;;;5011029;28;20494;-50
2021/01/11 06:57:16;;;;;;;43.53;27.13;;;3.80;99.90;;;;;;5020425;28;20884;-50
2021/01/11 06:59:47;;;;;;;46.23;26.40;;;3.80;99.90;;;;;;5014207;28;21130;-49
2021/01/11 07:02:25;;;;;;;44.03;26.73;;;3.90;99.90;;;;;;5006552;28;20655;-50
2021/01/11 07:04:53;;;;;;;43.17;26.37;;;3.90;99.90;;;;;;5007373;28;20543;-49
2021/01/11 07:07:23;;;;;;;39.47;24.23;;;3.80;99.90;;;;;;5007055;28;20511;-49
2021/01/11 07:09:58;;;;;;;41.53;25.83;;;3.80;99.90;;;;;;5006116;28;20480;-49
2021/01/11 07:12:27;;;;;;;42.80;25.60;;;3.80;99.90;;;;;;5005393;28;20482;-49
2021/01/11 07:15:06;;;;;;;41.43;25.40;;;3.80;99.90;;;;;;5006973;28;20476;-50
2021/01/11 07:17:40;;;;;;;39.00;24.87;;;3.80;99.90;;;;;;5006036;28;20513;-50
2021/01/11 07:20:11;;;;;;;39.00;25.87;;;3.80;99.90;;;;;;5006989;28;20477;-49
2021/01/11 07:22:43;;;;;;;38.97;24.40;;;3.80;99.90;;;;;;5006425;28;20987;-49
2021/01/11 07:25:24;;;;;;;37.73;24.40;;;3.80;99.90;;;;;;5006629;28;20485;-49
2021/01/11 07:27:56;;;;;;;38.63;25.67;;;3.80;99.90;;;;;;5006393;28;20518;-49
2021/01/11 07:30:24;;;;;;;36.73;25.43;;;3.70;99.90;;;;;;5007060;28;20543;-49
2021/01/11 07:32:52;;;;;;;40.63;25.30;;;3.70;99.90;;;;;;5008827;28;20895;-50
2021/01/11 07:35:19;;;;;;;39.03;27.10;;;3.70;99.90;;;;;;5006656;28;20482;-49
2021/01/11 07:37:46;;;;;;;38.83;25.27;;;3.70;99.90;;;;;;5006565;28;20928;-49
2021/01/11 07:40:16;;;;;;;37.80;25.07;;;3.70;99.90;;;;;;5006706;28;20489;-48
2021/01/11 07:42:44;;;;;;;37.63;25.70;;;3.70;99.90;;;;;;5006031;28;20479;-48
2021/01/11 07:45:13;;;;;;;40.33;25.53;;;3.70;99.90;;;;;;5009138;28;20476;-48
2021/01/11 07:47:51;;;;;;;38.70;26.40;;;3.70;99.90;;;;;;4986530;28;20485;-49
2021/01/11 07:50:19;;;;;;;37.47;25.83;;;3.70;99.90;;;;;;5003036;28;20577;-48
2021/01/11 07:52:48;;;;;;;38.00;24.83;;;3.70;99.90;;;;;;5003757;28;20486;-49
2021/01/11 07:55:15;;;;;;;37.90;24.30;;;3.70;99.90;;;;;;5000555;28;20540;-49
2021/01/11 07:57:44;;;;;;;38.47;27.60;;;3.70;99.90;;;;;;5010294;28;20481;-51
2021/01/11 08:00:14;;;;;;;41.40;27.67;;;3.70;99.90;;;;;;5017216;28;20477;-49
2021/01/11 08:02:45;;;;;;;38.90;27.73;;;3.70;99.90;;;;;;5017849;28;20486;-49
2021/01/11 08:05:20;;;;;;;38.70;27.10;;;3.70;99.90;;;;;;5002776;28;21120;-49
2021/01/11 08:07:52;;;;;;;38.77;27.47;;;3.70;99.90;;;;;;5001530;28;20495;-48
2021/01/11 08:10:23;;;;;;;38.40;27.47;;;3.70;99.90;;;;;;5001211;28;20474;-49
2021/01/11 08:12:51;;;;;;;36.47;26.77;;;3.70;99.90;;;;;;5011692;28;20499;-52
2021/01/11 08:15:20;;;;;;;35.77;26.97;;;3.70;99.90;;;;;;5006000;28;20593;-49
2021/01/11 08:17:47;;;;;;;37.97;27.67;;;3.70;99.90;;;;;;5005501;28;20486;-49
2021/01/11 08:20:24;;;;;;;36.10;23.90;;;3.70;99.90;;;;;;5005527;28;20577;-48
2021/01/11 08:22:51;;;;;;;37.83;26.10;;;3.70;99.90;;;;;;5005677;28;20539;-49
2021/01/11 08:25:20;;;;;;;37.70;27.27;;;3.70;99.90;;;;;;5008632;28;20487;-49
2021/01/11 08:27:51;;;;;;;40.63;27.57;;;3.60;99.90;;;;;;5008465;28;20813;-49
2021/01/11 08:30:24;;;;;;;38.57;27.60;;;3.70;99.90;;;;;;5008412;28;21034;-49
2021/01/11 08:32:52;;;;;;;41.97;27.57;;;3.70;99.90;;;;;;5007710;28;20835;-49
2021/01/11 08:35:22;;;;;;;42.43;27.07;;;3.60;99.90;;;;;;5008321;28;20484;-49
2021/01/11 08:37:49;;;;;;;40.67;28.37;;;3.70;99.90;;;;;;5007438;28;20482;-48
2021/01/11 08:40:19;;;;;;;40.50;28.27;;;3.70;99.90;;;;;;5007519;28;21103;-49
2021/01/11 08:42:48;;;;;;;47.57;30.33;;;3.70;99.90;;;;;;5007342;28;20474;-50
2021/01/11 08:45:28;;;;;;;43.80;29.73;;;3.70;99.90;;;;;;5006844;28;20626;-49
2021/01/11 08:48:00;;;;;;;47.47;31.07;;;3.70;99.90;;;;;;4990420;28;20935;-49
2021/01/11 08:50:29;;;;;;;46.13;30.43;;;3.70;99.90;;;;;;4988059;28;20486;-49
2021/01/11 08:52:57;;;;;;;53.03;30.83;;;3.70;99.90;;;;;;5003872;28;20481;-49
2021/01/11 08:55:25;;;;;;;50.10;31.73;;;3.70;99.90;;;;;;5010880;28;20480;-49
2021/01/11 08:57:57;;;;;;;48.40;30.63;;;3.60;99.90;;;;;;5013789;28;20850;-49
2021/01/11 09:00:26;;;;;;;52.40;30.93;;;3.70;99.90;;;;;;5024828;28;20539;-48
2021/01/11 09:02:54;;;;;;;53.20;32.60;;;3.70;99.90;;;;;;5018967;28;20505;-48
2021/01/11 09:05:23;;;;;;;56.37;31.90;;;3.60;99.90;;;;;;5004639;28;20505;-49
2021/01/11 09:07:51;;;;;;;57.07;32.43;;;3.60;99.90;;;;;;4999522;28;20580;-48
2021/01/11 09:10:22;;;;;;;54.03;32.80;;;3.60;99.90;;;;;;5004930;28;20493;-50
2021/01/11 09:12:49;;;;;;;58.27;33.23;;;3.70;99.90;;;;;;5004460;28;20999;-49
2021/01/11 09:15:26;;;;;;;55.73;32.80;;;3.60;99.90;;;;;;5001416;28;20565;-49
2021/01/11 09:18:03;;;;;;;61.20;33.87;;;3.60;99.90;;;;;;4991028;28;20481;-50
2021/01/11 09:20:34;;;;;;;54.63;31.93;;;3.70;99.90;;;;;;4997935;28;20568;-49
2021/01/11 09:23:01;;;;;;;57.33;31.17;;;3.60;99.90;;;;;;5004861;28;20480;-49
2021/01/11 09:25:29;;;;;;;59.07;32.80;;;3.60;99.90;;;;;;5004712;28;20486;-50
2021/01/11 09:27:57;;;;;;;57.37;33.03;;;3.60;99.90;;;;;;5004758;28;20482;-48
2021/01/11 09:30:27;;;;;;;54.87;31.57;;;3.70;99.90;;;;;;5004772;28;20815;-50
2021/01/11 09:32:54;;;;;;;55.77;30.47;;;3.70;99.90;;;;;;4980924;28;20972;-50
2021/01/11 09:35:22;;;;;;;60.20;31.50;;;3.70;99.90;;;;;;973390;28;10002009;-49
2021/01/11 09:37:49;;;;;;;57.80;31.87;;;3.70;99.90;;;;;;5002914;28;20241;-48
2021/01/11 09:40:18;;;;;;;55.17;30.13;;;3.70;99.90;;;;;;5010283;28;20537;-51
2021/01/11 09:42:46;;;;;;;60.87;30.57;;;3.70;99.90;;;;;;5006590;28;20484;-49
2021/01/11 09:45:14;;;;;;;56.03;30.83;;;3.60;99.90;;;;;;5003560;28;20569;-48
2021/01/11 09:47:44;;;;;;;62.77;30.67;;;3.70;99.90;;;;;;4997416;28;20493;-50
2021/01/11 09:50:13;;;;;;;54.57;29.13;;;3.60;99.90;;;;;;5008562;28;20492;-49
2021/01/11 09:52:40;;;;;;;56.37;28.23;;;3.60;99.90;;;;;;5002845;28;20485;-49
2021/01/11 09:55:10;;;;;;;60.43;28.33;;;3.60;99.90;;;;;;5013243;28;20480;-49
2021/01/11 09:57:38;;;;;;;60.10;29.43;;;3.60;99.90;;;;;;5022989;28;20548;-49
2021/01/11 10:00:09;;;;;;;58.60;28.53;;;3.60;99.90;;;;;;5014106;28;21005;-49
2021/01/11 10:02:38;;;;;;;52.67;25.80;;;3.60;99.90;;;;;;5000874;28;20461;-48
2021/01/11 10:05:08;;;;;;;50.57;26.47;;;3.60;99.90;;;;;;4999228;28;20488;-49
2021/01/11 10:07:35;;;;;;;53.47;26.27;;;3.60;99.90;;;;;;5002272;28;20549;-48
2021/01/11 10:10:04;;;;;;;47.20;24.93;;;3.60;99.90;;;;;;5005069;28;20484;-49
2021/01/11 10:12:31;;;;;;;53.77;25.07;;;3.60;99.90;;;;;;5001226;28;20494;-48
2021/01/11 10:14:58;;;;;;;50.17;25.97;;;3.60;99.90;;;;;;5002099;28;20566;-48
2021/01/11 10:17:27;;;;;;;53.50;27.63;;;3.60;99.90;;;;;;5001862;28;21086;-49
2021/01/11 10:19:54;;;;;;;50.70;25.57;;;3.60;99.90;;;;;;5002031;28;20497;-49
2021/01/11 10:22:23;;;;;;;52.93;26.97;;;3.60;99.90;;;;;;5001595;28;20511;-49
2021/01/11 10:24:50;;;;;;;51.87;27.87;;;3.60;99.90;;;;;;5001967;28;20497;-48
2021/01/11 10:27:18;;;;;;;51.67;27.47;;;3.60;99.90;;;;;;5002025;28;20499;-48
2021/01/11 10:29:46;;;;;;;45.13;24.33;;;3.60;99.90;;;;;;5001743;28;20558;-49
2021/01/11 10:32:13;;;;;;;44.30;24.47;;;3.60;99.90;;;;;;5001321;28;20488;-48
2021/01/11 10:34:41;;;;;;;47.03;25.20;;;3.60;99.90;;;;;;5004471;28;20522;-48
2021/01/11 10:37:08;;;;;;;44.67;24.97;;;3.50;99.90;;;;;;5000712;28;20519;-49
2021/01/11 10:39:36;;;;;;;43.97;24.97;;;3.50;99.90;;;;;;4994809;28;20472;-48
2021/01/11 10:42:04;;;;;;;48.47;26.70;;;3.60;99.90;;;;;;4987126;28;20561;-48
2021/01/11 10:44:31;;;;;;;46.03;26.67;;;3.60;99.90;;;;;;4988393;28;20823;-49
2021/01/11 10:47:00;;;;;;;48.57;26.07;;;3.60;99.90;;;;;;5012687;28;20547;-50
2021/01/11 10:49:29;;;;;;;49.50;25.70;;;3.60;99.90;;;;;;5009256;28;20480;-48
2021/01/11 10:51:58;;;;;;;46.23;25.70;;;3.60;99.90;;;;;;5006885;28;20467;-49
2021/01/11 10:54:25;;;;;;;44.43;23.83;;;3.60;99.90;;;;;;5005472;28;20561;-50
2021/01/11 10:56:55;;;;;;;45.40;24.80;;;3.60;99.90;;;;;;5007030;28;20835;-48
2021/01/11 10:59:22;;;;;;;43.30;23.77;;;3.60;99.90;;;;;;5006020;28;20481;-49
2021/01/11 11:01:50;;;;;;;41.37;25.17;;;3.60;99.90;;;;;;5003304;28;21010;-48
2021/01/11 11:04:21;;;;;;;40.63;24.40;;;3.50;99.90;;;;;;5006921;28;20534;-49
2021/01/11 11:06:48;;;;;;;37.77;22.93;;;3.50;99.90;;;;;;5006482;28;20555;-49
2021/01/11 11:09:16;;;;;;;39.27;23.50;;;3.50;99.90;;;;;;5001654;28;20508;-49
2021/01/11 11:11:44;;;;;;;34.47;21.73;;;3.50;99.90;;;;;;4996628;28;20497;-48
2021/01/11 11:14:12;;;;;;;38.00;21.83;;;3.50;99.90;;;;;;4997549;28;20922;-48
2021/01/11 11:16:39;;;;;;;39.40;22.93;;;3.50;99.90;;;;;;5001591;28;20485;-48
2021/01/11 11:19:06;;;;;;;36.97;23.27;;;3.50;99.90;;;;;;5006438;28;20488;-48
2021/01/11 11:21:34;;;;;;;36.83;23.80;;;3.50;99.90;;;;;;5004024;28;20489;-48
2021/01/11 11:24:16;;;;;;;38.00;24.70;;;3.50;99.90;;;;;;5005506;28;20499;-49
2021/01/11 11:26:44;;;;;;;38.93;24.27;;;3.50;99.90;;;;;;5006342;28;21693;-49
2021/01/11 11:29:12;;;;;;;40.30;23.57;;;3.50;99.90;;;;;;5006443;28;20533;-49
2021/01/11 11:31:41;;;;;;;37.30;22.50;;;3.50;99.90;;;;;;5005858;28;20485;-48
2021/01/11 11:34:09;;;;;;;38.60;22.87;;;3.50;99.90;;;;;;5006624;28;20485;-49
2021/01/11 11:36:37;;;;;;;35.87;22.10;;;3.50;99.90;;;;;;5005909;28;20836;-49
2021/01/11 11:39:11;;;;;;;37.47;21.97;;;3.50;99.90;;;;;;5006720;28;20571;-49
2021/01/11 11:41:39;;;;;;;38.87;22.33;;;3.50;99.90;;;;;;5007780;28;20483;-48
2021/01/11 11:44:06;;;;;;;33.57;20.80;;;3.50;99.90;;;;;;5007429;28;20479;-49
2021/01/11 11:46:34;;;;;;;38.40;23.70;;;3.50;99.90;;;;;;5002537;28;20491;-48
2021/01/11 11:49:02;;;;;;;35.17;22.10;;;3.50;99.90;;;;;;5012021;28;20539;-48
2021/01/11 11:51:29;;;;;;;37.00;22.53;;;3.50;99.90;;;;;;5008682;28;20477;-49
2021/01/11 11:53:57;;;;;;;34.37;21.50;;;3.50;99.90;;;;;;5006374;28;20548;-48
2021/01/11 11:56:24;;;;;;;37.27;20.50;;;3.50;99.90;;;;;;5005039;28;20532;-48
2021/01/11 11:58:52;;;;;;;34.80;21.97;;;3.50;99.90;;;;;;5004577;28;20588;-48
2021/01/11 12:01:19;;;;;;;33.23;21.20;;;3.50;99.90;;;;;;5006306;28;20487;-49
2021/01/11 12:03:47;;;;;;;35.07;22.23;;;3.50;99.90;;;;;;5005770;28;20762;-49
2021/01/11 12:06:15;;;;;;;35.07;21.90;;;3.50;99.90;;;;;;5006201;28;20481;-48
2021/01/11 12:08:42;;;;;;;34.03;21.57;;;3.50;99.90;;;;;;5005951;28;20478;-48
2021/01/11 12:11:09;;;;;;;33.23;20.93;;;3.50;99.90;;;;;;5005892;28;20489;-49
2021/01/11 12:13:36;;;;;;;33.70;19.20;;;3.50;99.90;;;;;;5005725;28;20983;-49
2021/01/11 12:16:08;;;;;;;34.47;20.97;;;3.50;99.90;;;;;;5008961;28;20565;-48
2021/01/11 12:18:36;;;;;;;35.10;20.63;;;3.50;99.90;;;;;;5005571;28;20498;-50
2021/01/11 12:21:04;;;;;;;36.37;21.77;;;3.50;99.90;;;;;;5006078;28;20486;-49
2021/01/11 12:23:31;;;;;;;34.80;21.47;;;3.50;99.90;;;;;;5005504;28;20513;-48
2021/01/11 12:25:58;;;;;;;34.60;21.67;;;3.50;99.90;;;;;;5005769;28;20491;-48
2021/01/11 12:28:26;;;;;;;35.70;20.93;;;3.50;99.90;;;;;;5005645;28;20469;-48
2021/01/11 12:30:53;;;;;;;33.77;21.03;;;3.50;99.90;;;;;;5005793;28;20497;-49
2021/01/11 12:33:21;;;;;;;36.53;21.90;;;3.50;99.90;;;;;;4999605;28;20928;-49
2021/01/11 12:35:48;;;;;;;34.93;22.10;;;3.50;99.90;;;;;;4999710;28;20871;-49
2021/01/11 12:38:16;;;;;;;39.27;23.30;;;3.40;99.90;;;;;;5000602;28;20475;-49
2021/01/11 12:40:43;;;;;;;34.20;22.70;;;3.50;99.90;;;;;;5007235;28;20834;-49
2021/01/11 12:43:11;;;;;;;34.73;22.10;;;3.50;99.90;;;;;;5013118;28;20964;-50
2021/01/11 12:45:38;;;;;;;35.87;22.77;;;3.50;99.90;;;;;;5001639;28;20867;-48
2021/01/11 12:48:06;;;;;;;37.37;23.00;;;3.50;99.90;;;;;;5008668;28;20987;-48
2021/01/11 12:50:34;;;;;;;36.07;21.40;;;3.50;99.90;;;;;;5025086;28;21004;-48